sensor_id;sensor_type;location;lat;lon;timestamp;temperature;humidity
484;DHT22;228;48.922;12.198;2022-12-07T00:01:33;7.30;71.30
484;DHT22;228;48.922;12.198;2022-12-07T00:04:03;7.20;70.40
484;DHT22;228;48.922;12.198;2022-12-07T00:06:56;7.10;72.10
484;DHT22;228;48.922;12.198;2022-12-07T00:09:22;7.30;71.10
484;DHT22;228;48.922;12.198;2022-12-07T00:11:50;7.20;71.00
484;DHT22;228;48.922;12.198;2022-12-07T00:14:17;7.30;70.80
484;DHT22;228;48.922;12.198;2022-12-07T00:16:44;7.10;70.90
484;DHT22;228;48.922;12.198;2022-12-07T00:19:12;7.20;71.50
484;DHT22;228;48.922;12.198;2022-12-07T00:21:39;7.40;70.80
484;DHT22;228;48.922;12.198;2022-12-07T00:24:06;7.00;71.00
484;DHT22;228;48.922;12.198;2022-12-07T00:26:35;7.00;71.60
484;DHT22;228;48.922;12.198;2022-12-07T00:29:17;6.70;72.50
484;DHT22;228;48.922;12.198;2022-12-07T00:31:44;6.50;73.40
484;DHT22;228;48.922;12.198;2022-12-07T00:34:19;6.70;73.50
484;DHT22;228;48.922;12.198;2022-12-07T00:36:47;6.90;72.50
484;DHT22;228;48.922;12.198;2022-12-07T00:39:13;6.60;72.70
484;DHT22;228;48.922;12.198;2022-12-07T00:41:40;6.60;73.10
484;DHT22;228;48.922;12.198;2022-12-07T00:44:06;6.60;72.90
484;DHT22;228;48.922;12.198;2022-12-07T00:46:32;6.00;74.30
484;DHT22;228;48.922;12.198;2022-12-07T00:48:58;6.00;74.80
484;DHT22;228;48.922;12.198;2022-12-07T00:51:25;6.00;74.20
484;DHT22;228;48.922;12.198;2022-12-07T00:53:52;6.40;74.00
484;DHT22;228;48.922;12.198;2022-12-07T00:56:21;6.60;73.20
484;DHT22;228;48.922;12.198;2022-12-07T00:59:06;6.70;72.30
484;DHT22;228;48.922;12.198;2022-12-07T01:01:35;6.90;71.60
484;DHT22;228;48.922;12.198;2022-12-07T01:04:02;7.00;71.00
484;DHT22;228;48.922;12.198;2022-12-07T01:06:29;7.10;71.00
484;DHT22;228;48.922;12.198;2022-12-07T01:08:56;7.10;71.00
484;DHT22;228;48.922;12.198;2022-12-07T01:11:25;7.00;70.60
484;DHT22;228;48.922;12.198;2022-12-07T01:13:54;7.30;70.60
484;DHT22;228;48.922;12.198;2022-12-07T01:16:22;7.20;69.70
484;DHT22;228;48.922;12.198;2022-12-07T01:18:51;6.90;70.40
484;DHT22;228;48.922;12.198;2022-12-07T01:21:21;6.60;71.60
484;DHT22;228;48.922;12.198;2022-12-07T01:23:49;6.60;71.40
484;DHT22;228;48.922;12.198;2022-12-07T01:26:18;6.60;71.40
484;DHT22;228;48.922;12.198;2022-12-07T01:28:46;6.50;71.60
484;DHT22;228;48.922;12.198;2022-12-07T01:31:16;6.50;72.10
484;DHT22;228;48.922;12.198;2022-12-07T01:33:48;6.30;71.80
484;DHT22;228;48.922;12.198;2022-12-07T01:38:45;6.50;72.00
484;DHT22;228;48.922;12.198;2022-12-07T01:41:13;6.80;71.30
484;DHT22;228;48.922;12.198;2022-12-07T01:46:40;6.60;72.20
484;DHT22;228;48.922;12.198;2022-12-07T01:49:12;6.60;71.70
484;DHT22;228;48.922;12.198;2022-12-07T01:51:49;6.40;72.10
484;DHT22;228;48.922;12.198;2022-12-07T01:54:20;6.50;72.70
484;DHT22;228;48.922;12.198;2022-12-07T01:56:51;6.40;72.90
484;DHT22;228;48.922;12.198;2022-12-07T01:59:20;6.00;73.50
484;DHT22;228;48.922;12.198;2022-12-07T02:01:48;6.10;73.60
484;DHT22;228;48.922;12.198;2022-12-07T02:04:14;6.30;73.60
484;DHT22;228;48.922;12.198;2022-12-07T02:06:41;6.40;72.70
484;DHT22;228;48.922;12.198;2022-12-07T02:09:08;6.40;72.20
484;DHT22;228;48.922;12.198;2022-12-07T02:11:34;6.30;72.60
484;DHT22;228;48.922;12.198;2022-12-07T02:14:01;6.20;72.70
484;DHT22;228;48.922;12.198;2022-12-07T02:25:21;5.70;75.30
484;DHT22;228;48.922;12.198;2022-12-07T02:27:56;6.00;74.80
484;DHT22;228;48.922;12.198;2022-12-07T02:30:58;5.80;73.30
484;DHT22;228;48.922;12.198;2022-12-07T02:33:33;5.80;73.90
484;DHT22;228;48.922;12.198;2022-12-07T02:36:17;6.10;73.60
484;DHT22;228;48.922;12.198;2022-12-07T02:38:55;6.20;72.80
484;DHT22;228;48.922;12.198;2022-12-07T02:41:34;6.20;72.50
484;DHT22;228;48.922;12.198;2022-12-07T02:44:08;6.30;71.70
484;DHT22;228;48.922;12.198;2022-12-07T02:46:43;6.30;71.30
484;DHT22;228;48.922;12.198;2022-12-07T02:49:12;6.60;70.70
484;DHT22;228;48.922;12.198;2022-12-07T02:51:41;6.70;69.30
484;DHT22;228;48.922;12.198;2022-12-07T02:54:12;6.20;69.50
484;DHT22;228;48.922;12.198;2022-12-07T02:59:41;6.30;70.50
484;DHT22;228;48.922;12.198;2022-12-07T03:02:38;6.20;70.80
484;DHT22;228;48.922;12.198;2022-12-07T03:11:48;5.80;72.00
484;DHT22;228;48.922;12.198;2022-12-07T03:14:29;5.50;73.10
484;DHT22;228;48.922;12.198;2022-12-07T03:19:27;4.70;74.70
484;DHT22;228;48.922;12.198;2022-12-07T03:21:57;4.80;76.20
484;DHT22;228;48.922;12.198;2022-12-07T03:24:33;4.90;76.20
484;DHT22;228;48.922;12.198;2022-12-07T03:27:56;4.70;76.70
484;DHT22;228;48.922;12.198;2022-12-07T03:30:53;5.20;76.20
484;DHT22;228;48.922;12.198;2022-12-07T03:33:48;5.30;76.40
484;DHT22;228;48.922;12.198;2022-12-07T03:36:31;5.40;75.20
484;DHT22;228;48.922;12.198;2022-12-07T03:39:24;5.20;75.30
484;DHT22;228;48.922;12.198;2022-12-07T03:41:54;5.40;75.10
484;DHT22;228;48.922;12.198;2022-12-07T03:44:22;5.60;74.60
484;DHT22;228;48.922;12.198;2022-12-07T03:47:01;6.00;73.50
484;DHT22;228;48.922;12.198;2022-12-07T03:55:08;5.90;73.50
484;DHT22;228;48.922;12.198;2022-12-07T03:57:38;5.70;73.20
484;DHT22;228;48.922;12.198;2022-12-07T04:00:07;5.40;74.50
484;DHT22;228;48.922;12.198;2022-12-07T04:02:41;5.70;73.90
484;DHT22;228;48.922;12.198;2022-12-07T04:05:08;5.90;73.40
484;DHT22;228;48.922;12.198;2022-12-07T04:07:34;6.30;72.40
484;DHT22;228;48.922;12.198;2022-12-07T04:10:00;6.40;71.40
484;DHT22;228;48.922;12.198;2022-12-07T04:12:26;6.60;71.00
484;DHT22;228;48.922;12.198;2022-12-07T04:14:52;6.50;70.90
484;DHT22;228;48.922;12.198;2022-12-07T04:17:18;6.40;70.30
484;DHT22;228;48.922;12.198;2022-12-07T04:19:44;6.60;70.40
484;DHT22;228;48.922;12.198;2022-12-07T04:22:10;6.50;70.30
484;DHT22;228;48.922;12.198;2022-12-07T04:24:37;6.40;70.00
484;DHT22;228;48.922;12.198;2022-12-07T04:27:03;6.10;70.60
484;DHT22;228;48.922;12.198;2022-12-07T04:29:29;5.80;71.30
484;DHT22;228;48.922;12.198;2022-12-07T04:31:55;5.80;72.50
484;DHT22;228;48.922;12.198;2022-12-07T04:34:21;5.80;72.80
484;DHT22;228;48.922;12.198;2022-12-07T04:36:47;5.70;73.00
484;DHT22;228;48.922;12.198;2022-12-07T04:39:23;5.60;73.00
484;DHT22;228;48.922;12.198;2022-12-07T04:41:51;5.70;73.20
484;DHT22;228;48.922;12.198;2022-12-07T04:44:17;5.80;73.30
484;DHT22;228;48.922;12.198;2022-12-07T04:46:44;5.50;73.60
484;DHT22;228;48.922;12.198;2022-12-07T04:49:11;5.70;73.80
484;DHT22;228;48.922;12.198;2022-12-07T04:51:38;5.80;73.40
484;DHT22;228;48.922;12.198;2022-12-07T04:54:04;5.60;74.10
484;DHT22;228;48.922;12.198;2022-12-07T04:56:30;5.60;74.10
484;DHT22;228;48.922;12.198;2022-12-07T04:58:57;5.60;74.00
484;DHT22;228;48.922;12.198;2022-12-07T05:01:23;5.60;74.10
484;DHT22;228;48.922;12.198;2022-12-07T05:03:50;5.30;75.00
484;DHT22;228;48.922;12.198;2022-12-07T05:06:17;5.10;75.90
484;DHT22;228;48.922;12.198;2022-12-07T05:08:43;5.30;75.70
484;DHT22;228;48.922;12.198;2022-12-07T05:11:10;5.30;75.70
484;DHT22;228;48.922;12.198;2022-12-07T05:13:56;5.00;75.80
484;DHT22;228;48.922;12.198;2022-12-07T05:16:23;5.10;76.30
484;DHT22;228;48.922;12.198;2022-12-07T05:18:49;5.20;75.50
484;DHT22;228;48.922;12.198;2022-12-07T05:21:15;5.20;74.70
484;DHT22;228;48.922;12.198;2022-12-07T05:23:41;5.20;74.70
484;DHT22;228;48.922;12.198;2022-12-07T05:26:07;5.00;75.00
484;DHT22;228;48.922;12.198;2022-12-07T05:28:33;5.10;75.20
484;DHT22;228;48.922;12.198;2022-12-07T05:30:59;5.10;74.70
484;DHT22;228;48.922;12.198;2022-12-07T05:33:25;5.10;74.50
484;DHT22;228;48.922;12.198;2022-12-07T05:35:52;5.20;74.00
484;DHT22;228;48.922;12.198;2022-12-07T05:38:18;5.20;73.50
484;DHT22;228;48.922;12.198;2022-12-07T05:40:44;5.30;73.60
484;DHT22;228;48.922;12.198;2022-12-07T05:43:10;4.90;74.30
484;DHT22;228;48.922;12.198;2022-12-07T05:45:36;4.70;75.30
484;DHT22;228;48.922;12.198;2022-12-07T05:48:03;4.40;76.30
484;DHT22;228;48.922;12.198;2022-12-07T05:50:29;4.40;76.60
484;DHT22;228;48.922;12.198;2022-12-07T05:53:01;4.40;76.50
484;DHT22;228;48.922;12.198;2022-12-07T05:55:27;4.30;76.80
484;DHT22;228;48.922;12.198;2022-12-07T05:57:53;4.30;77.10
484;DHT22;228;48.922;12.198;2022-12-07T06:00:37;4.30;77.10
484;DHT22;228;48.922;12.198;2022-12-07T06:03:03;4.30;76.90
484;DHT22;228;48.922;12.198;2022-12-07T06:05:29;4.20;77.30
484;DHT22;228;48.922;12.198;2022-12-07T06:07:55;4.00;78.20
484;DHT22;228;48.922;12.198;2022-12-07T06:10:21;4.20;77.70
484;DHT22;228;48.922;12.198;2022-12-07T06:12:47;4.30;77.50
484;DHT22;228;48.922;12.198;2022-12-07T06:15:13;4.30;77.80
484;DHT22;228;48.922;12.198;2022-12-07T06:17:39;4.50;78.30
484;DHT22;228;48.922;12.198;2022-12-07T06:20:06;4.60;77.80
484;DHT22;228;48.922;12.198;2022-12-07T06:22:32;4.70;78.10
484;DHT22;228;48.922;12.198;2022-12-07T06:24:58;5.00;77.60
484;DHT22;228;48.922;12.198;2022-12-07T06:27:24;4.90;76.40
484;DHT22;228;48.922;12.198;2022-12-07T06:29:50;5.00;76.30
484;DHT22;228;48.922;12.198;2022-12-07T06:32:16;5.10;76.40
484;DHT22;228;48.922;12.198;2022-12-07T06:34:42;5.30;75.80
484;DHT22;228;48.922;12.198;2022-12-07T06:37:08;4.90;75.90
484;DHT22;228;48.922;12.198;2022-12-07T06:39:34;5.10;76.20
484;DHT22;228;48.922;12.198;2022-12-07T06:42:00;5.10;76.00
484;DHT22;228;48.922;12.198;2022-12-07T06:44:26;5.10;75.60
484;DHT22;228;48.922;12.198;2022-12-07T06:46:52;5.00;76.00
484;DHT22;228;48.922;12.198;2022-12-07T06:49:19;5.10;76.00
484;DHT22;228;48.922;12.198;2022-12-07T06:51:45;5.10;75.20
484;DHT22;228;48.922;12.198;2022-12-07T06:54:12;5.00;75.40
484;DHT22;228;48.922;12.198;2022-12-07T06:56:39;5.00;75.20
484;DHT22;228;48.922;12.198;2022-12-07T06:59:06;4.80;75.60
484;DHT22;228;48.922;12.198;2022-12-07T07:01:34;4.90;75.60
484;DHT22;228;48.922;12.198;2022-12-07T07:04:00;5.00;75.00
484;DHT22;228;48.922;12.198;2022-12-07T07:06:26;5.10;74.20
484;DHT22;228;48.922;12.198;2022-12-07T07:08:53;5.20;74.00
484;DHT22;228;48.922;12.198;2022-12-07T07:11:19;5.10;73.70
484;DHT22;228;48.922;12.198;2022-12-07T07:13:45;5.10;73.90
484;DHT22;228;48.922;12.198;2022-12-07T07:16:11;5.20;73.60
484;DHT22;228;48.922;12.198;2022-12-07T07:18:37;5.00;73.90
484;DHT22;228;48.922;12.198;2022-12-07T07:21:04;5.10;74.40
484;DHT22;228;48.922;12.198;2022-12-07T07:23:30;5.20;74.40
484;DHT22;228;48.922;12.198;2022-12-07T07:25:56;5.40;74.20
484;DHT22;228;48.922;12.198;2022-12-07T07:28:22;5.60;73.10
484;DHT22;228;48.922;12.198;2022-12-07T07:30:48;5.80;72.80
484;DHT22;228;48.922;12.198;2022-12-07T07:33:15;5.70;72.20
484;DHT22;228;48.922;12.198;2022-12-07T07:35:43;5.70;72.40
484;DHT22;228;48.922;12.198;2022-12-07T07:38:09;5.70;72.80
484;DHT22;228;48.922;12.198;2022-12-07T07:40:35;5.70;72.30
484;DHT22;228;48.922;12.198;2022-12-07T07:43:02;5.80;72.40
484;DHT22;228;48.922;12.198;2022-12-07T07:45:28;5.70;72.40
484;DHT22;228;48.922;12.198;2022-12-07T07:47:54;5.70;72.10
484;DHT22;228;48.922;12.198;2022-12-07T07:50:22;5.50;73.00
484;DHT22;228;48.922;12.198;2022-12-07T07:52:48;5.50;73.10
484;DHT22;228;48.922;12.198;2022-12-07T07:55:14;5.40;74.10
484;DHT22;228;48.922;12.198;2022-12-07T07:57:41;5.40;73.50
484;DHT22;228;48.922;12.198;2022-12-07T08:00:10;5.80;72.80
484;DHT22;228;48.922;12.198;2022-12-07T08:02:41;6.00;71.70
484;DHT22;228;48.922;12.198;2022-12-07T08:05:09;6.20;71.20
484;DHT22;228;48.922;12.198;2022-12-07T08:07:36;6.00;71.50
484;DHT22;228;48.922;12.198;2022-12-07T08:10:03;5.70;71.30
484;DHT22;228;48.922;12.198;2022-12-07T08:12:29;5.60;72.90
484;DHT22;228;48.922;12.198;2022-12-07T08:14:55;5.70;71.90
484;DHT22;228;48.922;12.198;2022-12-07T08:17:21;5.80;71.50
484;DHT22;228;48.922;12.198;2022-12-07T08:19:47;6.10;71.40
484;DHT22;228;48.922;12.198;2022-12-07T08:22:13;6.40;70.70
484;DHT22;228;48.922;12.198;2022-12-07T08:24:39;6.50;69.80
484;DHT22;228;48.922;12.198;2022-12-07T08:27:05;6.90;68.50
484;DHT22;228;48.922;12.198;2022-12-07T08:29:31;6.90;66.10
484;DHT22;228;48.922;12.198;2022-12-07T08:31:58;6.50;66.50
484;DHT22;228;48.922;12.198;2022-12-07T08:34:26;6.50;66.80
484;DHT22;228;48.922;12.198;2022-12-07T08:36:52;6.30;67.00
484;DHT22;228;48.922;12.198;2022-12-07T08:39:18;6.40;67.60
484;DHT22;228;48.922;12.198;2022-12-07T08:41:44;6.70;67.30
484;DHT22;228;48.922;12.198;2022-12-07T08:44:10;7.00;66.30
484;DHT22;228;48.922;12.198;2022-12-07T08:46:44;7.10;65.30
484;DHT22;228;48.922;12.198;2022-12-07T08:49:22;7.20;65.10
484;DHT22;228;48.922;12.198;2022-12-07T08:51:55;7.00;65.80
484;DHT22;228;48.922;12.198;2022-12-07T08:54:21;7.00;65.60
484;DHT22;228;48.922;12.198;2022-12-07T08:56:48;7.10;66.00
484;DHT22;228;48.922;12.198;2022-12-07T08:59:17;6.70;66.30
484;DHT22;228;48.922;12.198;2022-12-07T09:01:44;6.80;66.20
484;DHT22;228;48.922;12.198;2022-12-07T09:04:11;7.30;66.00
484;DHT22;228;48.922;12.198;2022-12-07T09:06:37;6.90;66.20
484;DHT22;228;48.922;12.198;2022-12-07T09:09:04;7.00;67.00
484;DHT22;228;48.922;12.198;2022-12-07T09:11:32;7.10;66.90
484;DHT22;228;48.922;12.198;2022-12-07T09:13:58;7.50;66.30
484;DHT22;228;48.922;12.198;2022-12-07T09:16:24;8.20;65.00
484;DHT22;228;48.922;12.198;2022-12-07T09:18:50;8.30;61.70
484;DHT22;228;48.922;12.198;2022-12-07T09:21:16;8.20;62.10
484;DHT22;228;48.922;12.198;2022-12-07T09:23:42;7.90;61.50
484;DHT22;228;48.922;12.198;2022-12-07T09:26:09;7.90;62.50
484;DHT22;228;48.922;12.198;2022-12-07T09:28:35;7.80;61.80
484;DHT22;228;48.922;12.198;2022-12-07T09:31:03;7.80;61.80
484;DHT22;228;48.922;12.198;2022-12-07T09:33:29;7.50;62.90
484;DHT22;228;48.922;12.198;2022-12-07T09:35:55;7.40;63.20
484;DHT22;228;48.922;12.198;2022-12-07T09:38:21;7.20;63.90
484;DHT22;228;48.922;12.198;2022-12-07T09:40:48;7.10;63.90
484;DHT22;228;48.922;12.198;2022-12-07T09:43:20;7.10;63.90
484;DHT22;228;48.922;12.198;2022-12-07T09:45:49;6.90;63.90
484;DHT22;228;48.922;12.198;2022-12-07T09:48:23;6.90;64.40
484;DHT22;228;48.922;12.198;2022-12-07T09:51:01;7.10;64.60
484;DHT22;228;48.922;12.198;2022-12-07T09:53:36;6.90;65.10
484;DHT22;228;48.922;12.198;2022-12-07T09:56:03;7.10;65.20
484;DHT22;228;48.922;12.198;2022-12-07T09:58:31;7.10;64.70
484;DHT22;228;48.922;12.198;2022-12-07T10:03:45;7.70;63.80
484;DHT22;228;48.922;12.198;2022-12-07T10:06:15;7.90;63.20
484;DHT22;228;48.922;12.198;2022-12-07T10:08:42;7.90;62.10
484;DHT22;228;48.922;12.198;2022-12-07T10:11:12;7.40;62.60
484;DHT22;228;48.922;12.198;2022-12-07T10:13:43;6.80;64.60
484;DHT22;228;48.922;12.198;2022-12-07T10:16:40;6.80;65.50
484;DHT22;228;48.922;12.198;2022-12-07T10:19:27;7.00;66.20
484;DHT22;228;48.922;12.198;2022-12-07T10:24:31;7.00;66.60
484;DHT22;228;48.922;12.198;2022-12-07T10:26:57;6.90;65.10
484;DHT22;228;48.922;12.198;2022-12-07T10:34:41;6.70;67.20
484;DHT22;228;48.922;12.198;2022-12-07T10:39:49;6.60;66.40
484;DHT22;228;48.922;12.198;2022-12-07T10:42:25;6.40;68.10
484;DHT22;228;48.922;12.198;2022-12-07T10:53:31;7.40;65.30
484;DHT22;228;48.922;12.198;2022-12-07T11:05:30;6.80;66.40
484;DHT22;228;48.922;12.198;2022-12-07T11:08:33;6.90;65.60
484;DHT22;228;48.922;12.198;2022-12-07T11:23:36;7.60;64.90
484;DHT22;228;48.922;12.198;2022-12-07T11:26:39;7.30;63.90
484;DHT22;228;48.922;12.198;2022-12-07T11:32:15;7.30;64.60
484;DHT22;228;48.922;12.198;2022-12-07T11:37:36;7.30;64.20
484;DHT22;228;48.922;12.198;2022-12-07T11:42:45;7.40;64.90
484;DHT22;228;48.922;12.198;2022-12-07T11:45:27;7.30;63.60
484;DHT22;228;48.922;12.198;2022-12-07T11:48:12;7.10;63.50
484;DHT22;228;48.922;12.198;2022-12-07T11:50:54;7.20;64.60
484;DHT22;228;48.922;12.198;2022-12-07T11:53:42;7.20;63.60
484;DHT22;228;48.922;12.198;2022-12-07T11:56:14;7.30;63.60
484;DHT22;228;48.922;12.198;2022-12-07T12:03:51;7.50;63.30
484;DHT22;228;48.922;12.198;2022-12-07T12:06:19;7.50;63.60
484;DHT22;228;48.922;12.198;2022-12-07T12:15:44;7.50;63.90
484;DHT22;228;48.922;12.198;2022-12-07T12:21:10;7.40;64.10
484;DHT22;228;48.922;12.198;2022-12-07T12:23:48;7.70;63.20
484;DHT22;228;48.922;12.198;2022-12-07T12:26:22;7.80;63.20
484;DHT22;228;48.922;12.198;2022-12-07T12:29:00;7.80;63.30
484;DHT22;228;48.922;12.198;2022-12-07T12:37:52;8.20;60.20
484;DHT22;228;48.922;12.198;2022-12-07T12:42:52;8.00;62.40
484;DHT22;228;48.922;12.198;2022-12-07T12:45:24;8.10;62.60
484;DHT22;228;48.922;12.198;2022-12-07T12:51:35;8.00;62.80
484;DHT22;228;48.922;12.198;2022-12-07T12:54:05;7.80;62.90
484;DHT22;228;48.922;12.198;2022-12-07T13:01:49;8.20;63.00
484;DHT22;228;48.922;12.198;2022-12-07T13:04:50;8.10;62.70
484;DHT22;228;48.922;12.198;2022-12-07T13:12:59;8.10;62.20
484;DHT22;228;48.922;12.198;2022-12-07T13:20:56;7.80;63.30
484;DHT22;228;48.922;12.198;2022-12-07T13:29:17;7.50;63.30
484;DHT22;228;48.922;12.198;2022-12-07T13:31:56;7.80;64.00
484;DHT22;228;48.922;12.198;2022-12-07T13:34:37;7.50;63.50
484;DHT22;228;48.922;12.198;2022-12-07T13:37:26;7.60;64.30
484;DHT22;228;48.922;12.198;2022-12-07T13:39:59;7.80;63.50
484;DHT22;228;48.922;12.198;2022-12-07T13:42:33;7.70;63.50
484;DHT22;228;48.922;12.198;2022-12-07T13:45:31;7.70;63.70
484;DHT22;228;48.922;12.198;2022-12-07T13:50:53;7.20;65.10
484;DHT22;228;48.922;12.198;2022-12-07T13:53:20;7.40;65.50
484;DHT22;228;48.922;12.198;2022-12-07T13:55:46;7.00;65.30
484;DHT22;228;48.922;12.198;2022-12-07T13:58:13;6.60;66.40
484;DHT22;228;48.922;12.198;2022-12-07T14:00:40;6.80;67.30
484;DHT22;228;48.922;12.198;2022-12-07T14:05:44;7.20;65.90
484;DHT22;228;48.922;12.198;2022-12-07T14:10:55;7.60;64.60
484;DHT22;228;48.922;12.198;2022-12-07T14:13:36;7.60;64.50
484;DHT22;228;48.922;12.198;2022-12-07T14:18:52;7.50;63.80
484;DHT22;228;48.922;12.198;2022-12-07T14:21:24;7.50;64.80
484;DHT22;228;48.922;12.198;2022-12-07T14:26:48;8.10;63.00
484;DHT22;228;48.922;12.198;2022-12-07T14:31:57;7.90;63.30
484;DHT22;228;48.922;12.198;2022-12-07T14:34:39;8.00;63.30
484;DHT22;228;48.922;12.198;2022-12-07T14:37:08;7.60;63.50
484;DHT22;228;48.922;12.198;2022-12-07T14:39:35;7.50;64.40
484;DHT22;228;48.922;12.198;2022-12-07T14:42:01;7.20;65.60
484;DHT22;228;48.922;12.198;2022-12-07T14:44:27;7.20;65.90
484;DHT22;228;48.922;12.198;2022-12-07T14:46:54;6.90;67.20
484;DHT22;228;48.922;12.198;2022-12-07T14:49:20;6.70;68.60
484;DHT22;228;48.922;12.198;2022-12-07T14:51:47;6.70;68.70
484;DHT22;228;48.922;12.198;2022-12-07T14:54:20;7.20;68.60
484;DHT22;228;48.922;12.198;2022-12-07T14:56:56;7.40;67.20
484;DHT22;228;48.922;12.198;2022-12-07T14:59:22;7.60;67.00
484;DHT22;228;48.922;12.198;2022-12-07T15:01:48;7.70;66.70
484;DHT22;228;48.922;12.198;2022-12-07T15:04:14;7.70;66.40
484;DHT22;228;48.922;12.198;2022-12-07T15:06:40;7.80;65.50
484;DHT22;228;48.922;12.198;2022-12-07T15:09:11;7.60;65.80
484;DHT22;228;48.922;12.198;2022-12-07T15:11:37;7.50;65.80
484;DHT22;228;48.922;12.198;2022-12-07T15:14:03;7.50;65.80
484;DHT22;228;48.922;12.198;2022-12-07T15:16:37;7.20;66.20
484;DHT22;228;48.922;12.198;2022-12-07T15:19:10;7.50;66.80
484;DHT22;228;48.922;12.198;2022-12-07T15:21:52;7.80;65.80
484;DHT22;228;48.922;12.198;2022-12-07T15:24:18;7.80;65.30
484;DHT22;228;48.922;12.198;2022-12-07T15:26:45;7.80;65.30
484;DHT22;228;48.922;12.198;2022-12-07T15:29:12;7.70;65.30
484;DHT22;228;48.922;12.198;2022-12-07T15:31:40;7.80;65.30
484;DHT22;228;48.922;12.198;2022-12-07T15:34:06;8.00;64.70
484;DHT22;228;48.922;12.198;2022-12-07T15:36:33;8.00;64.20
484;DHT22;228;48.922;12.198;2022-12-07T15:38:59;8.10;64.50
484;DHT22;228;48.922;12.198;2022-12-07T15:41:26;8.00;64.90
484;DHT22;228;48.922;12.198;2022-12-07T15:43:52;7.90;64.00
484;DHT22;228;48.922;12.198;2022-12-07T15:46:39;7.80;64.20
484;DHT22;228;48.922;12.198;2022-12-07T15:49:12;7.80;64.50
484;DHT22;228;48.922;12.198;2022-12-07T15:51:41;7.80;64.70
484;DHT22;228;48.922;12.198;2022-12-07T15:54:10;7.70;64.80
484;DHT22;228;48.922;12.198;2022-12-07T15:56:47;7.70;65.20
484;DHT22;228;48.922;12.198;2022-12-07T15:59:14;7.70;64.60
484;DHT22;228;48.922;12.198;2022-12-07T16:01:40;7.70;65.10
484;DHT22;228;48.922;12.198;2022-12-07T16:04:07;7.50;65.50
484;DHT22;228;48.922;12.198;2022-12-07T16:06:33;7.50;65.50
484;DHT22;228;48.922;12.198;2022-12-07T16:08:59;7.50;65.80
484;DHT22;228;48.922;12.198;2022-12-07T16:11:26;7.70;65.80
484;DHT22;228;48.922;12.198;2022-12-07T16:13:52;7.70;65.30
484;DHT22;228;48.922;12.198;2022-12-07T16:16:19;7.70;65.00
484;DHT22;228;48.922;12.198;2022-12-07T16:18:47;7.70;65.30
484;DHT22;228;48.922;12.198;2022-12-07T16:21:16;7.50;66.00
484;DHT22;228;48.922;12.198;2022-12-07T16:23:43;7.20;66.80
484;DHT22;228;48.922;12.198;2022-12-07T16:26:21;7.20;67.60
484;DHT22;228;48.922;12.198;2022-12-07T16:28:51;7.00;68.20
484;DHT22;228;48.922;12.198;2022-12-07T16:31:20;7.10;68.50
484;DHT22;228;48.922;12.198;2022-12-07T16:33:49;7.30;67.80
484;DHT22;228;48.922;12.198;2022-12-07T16:36:17;7.60;67.10
484;DHT22;228;48.922;12.198;2022-12-07T16:38:44;7.50;67.30
484;DHT22;228;48.922;12.198;2022-12-07T16:41:10;7.50;67.50
484;DHT22;228;48.922;12.198;2022-12-07T16:43:37;7.30;67.80
484;DHT22;228;48.922;12.198;2022-12-07T16:46:03;7.20;67.90
484;DHT22;228;48.922;12.198;2022-12-07T16:48:30;6.90;69.10
484;DHT22;228;48.922;12.198;2022-12-07T16:50:56;6.70;69.90
484;DHT22;228;48.922;12.198;2022-12-07T16:53:24;6.80;70.10
484;DHT22;228;48.922;12.198;2022-12-07T16:55:51;7.00;69.20
484;DHT22;228;48.922;12.198;2022-12-07T16:58:17;7.20;69.00
484;DHT22;228;48.922;12.198;2022-12-07T17:00:44;7.20;68.60
484;DHT22;228;48.922;12.198;2022-12-07T17:03:11;7.10;68.70
484;DHT22;228;48.922;12.198;2022-12-07T17:05:39;7.00;69.00
484;DHT22;228;48.922;12.198;2022-12-07T17:08:07;7.10;70.10
484;DHT22;228;48.922;12.198;2022-12-07T17:10:35;7.10;69.00
484;DHT22;228;48.922;12.198;2022-12-07T17:13:04;6.90;70.00
484;DHT22;228;48.922;12.198;2022-12-07T17:16:04;6.80;69.90
484;DHT22;228;48.922;12.198;2022-12-07T17:18:35;6.80;69.90
484;DHT22;228;48.922;12.198;2022-12-07T17:21:07;6.80;69.50
484;DHT22;228;48.922;12.198;2022-12-07T17:23:36;6.80;69.70
484;DHT22;228;48.922;12.198;2022-12-07T17:26:16;6.90;69.50
484;DHT22;228;48.922;12.198;2022-12-07T17:28:45;6.80;69.70
484;DHT22;228;48.922;12.198;2022-12-07T17:31:14;6.70;70.00
484;DHT22;228;48.922;12.198;2022-12-07T17:33:42;6.70;70.30
484;DHT22;228;48.922;12.198;2022-12-07T17:38:37;7.20;68.70
484;DHT22;228;48.922;12.198;2022-12-07T17:41:17;7.10;68.90
484;DHT22;228;48.922;12.198;2022-12-07T17:44:06;7.10;68.90
484;DHT22;228;48.922;12.198;2022-12-07T17:46:34;6.90;68.60
484;DHT22;228;48.922;12.198;2022-12-07T17:49:01;6.90;68.60
484;DHT22;228;48.922;12.198;2022-12-07T17:51:27;6.90;69.10
484;DHT22;228;48.922;12.198;2022-12-07T17:54:12;6.90;68.70
484;DHT22;228;48.922;12.198;2022-12-07T17:56:38;7.00;69.10
484;DHT22;228;48.922;12.198;2022-12-07T17:59:05;7.20;68.30
484;DHT22;228;48.922;12.198;2022-12-07T18:01:32;7.30;67.90
484;DHT22;228;48.922;12.198;2022-12-07T18:03:58;7.10;67.80
484;DHT22;228;48.922;12.198;2022-12-07T18:06:24;6.80;69.00
484;DHT22;228;48.922;12.198;2022-12-07T18:08:51;6.70;69.80
484;DHT22;228;48.922;12.198;2022-12-07T18:11:17;6.80;69.70
484;DHT22;228;48.922;12.198;2022-12-07T18:13:43;6.80;69.60
484;DHT22;228;48.922;12.198;2022-12-07T18:16:15;6.70;69.70
484;DHT22;228;48.922;12.198;2022-12-07T18:18:46;6.60;70.30
484;DHT22;228;48.922;12.198;2022-12-07T18:21:16;6.50;70.90
484;DHT22;228;48.922;12.198;2022-12-07T18:23:45;6.20;71.30
484;DHT22;228;48.922;12.198;2022-12-07T18:26:13;6.10;72.50
484;DHT22;228;48.922;12.198;2022-12-07T18:28:40;5.90;72.90
484;DHT22;228;48.922;12.198;2022-12-07T18:31:07;6.00;72.90
484;DHT22;228;48.922;12.198;2022-12-07T18:33:34;5.70;73.20
484;DHT22;228;48.922;12.198;2022-12-07T18:36:02;5.50;74.00
484;DHT22;228;48.922;12.198;2022-12-07T18:38:29;5.40;74.60
484;DHT22;228;48.922;12.198;2022-12-07T18:40:55;5.60;74.60
484;DHT22;228;48.922;12.198;2022-12-07T18:43:22;5.70;74.30
484;DHT22;228;48.922;12.198;2022-12-07T18:45:50;5.50;74.40
484;DHT22;228;48.922;12.198;2022-12-07T18:48:18;5.30;74.70
484;DHT22;228;48.922;12.198;2022-12-07T18:50:46;5.50;74.50
484;DHT22;228;48.922;12.198;2022-12-07T18:53:13;5.20;74.80
484;DHT22;228;48.922;12.198;2022-12-07T18:55:39;5.10;75.10
484;DHT22;228;48.922;12.198;2022-12-07T18:58:05;5.30;74.70
484;DHT22;228;48.922;12.198;2022-12-07T19:00:32;5.40;74.60
484;DHT22;228;48.922;12.198;2022-12-07T19:02:59;5.70;74.30
484;DHT22;228;48.922;12.198;2022-12-07T19:05:26;5.80;73.70
484;DHT22;228;48.922;12.198;2022-12-07T19:07:53;6.00;73.80
484;DHT22;228;48.922;12.198;2022-12-07T19:10:20;5.60;73.00
484;DHT22;228;48.922;12.198;2022-12-07T19:12:47;5.70;74.20
484;DHT22;228;48.922;12.198;2022-12-07T19:15:14;5.30;74.50
484;DHT22;228;48.922;12.198;2022-12-07T19:17:41;5.70;74.20
484;DHT22;228;48.922;12.198;2022-12-07T19:20:11;5.50;74.20
484;DHT22;228;48.922;12.198;2022-12-07T19:22:38;5.60;74.90
484;DHT22;228;48.922;12.198;2022-12-07T19:25:04;6.10;73.50